sensor_id;sensor_type;location;lat;lon;timestamp;temperature;humidity
7014;DHT22;3547;50.774;12.918;2022-10-30T00:21:16;13.40;1.00
7014;DHT22;3547;50.774;12.918;2022-10-30T00:23:48;13.30;1.00
7014;DHT22;3547;50.774;12.918;2022-10-30T00:26:15;13.30;1.00
7014;DHT22;3547;50.774;12.918;2022-10-30T00:28:42;13.30;1.00
7014;DHT22;3547;50.774;12.918;2022-10-30T00:31:09;13.30;1.00
7014;DHT22;3547;50.774;12.918;2022-10-30T00:33:35;13.30;1.00
7014;DHT22;3547;50.774;12.918;2022-10-30T00:36:01;13.20;1.00
7014;DHT22;3547;50.774;12.918;2022-10-30T00:38:27;13.20;1.00
7014;DHT22;3547;50.774;12.918;2022-10-30T00:40:53;13.10;1.00
7014;DHT22;3547;50.774;12.918;2022-10-30T00:43:29;13.10;1.00
7014;DHT22;3547;50.774;12.918;2022-10-30T00:46:02;13.10;1.00
7014;DHT22;3547;50.774;12.918;2022-10-30T00:48:29;12.80;1.00
7014;DHT22;3547;50.774;12.918;2022-10-30T00:50:57;12.70;1.00
7014;DHT22;3547;50.774;12.918;2022-10-30T00:53:27;12.80;1.00
7014;DHT22;3547;50.774;12.918;2022-10-30T00:55:57;12.80;1.00
7014;DHT22;3547;50.774;12.918;2022-10-30T00:58:31;12.80;1.00
7014;DHT22;3547;50.774;12.918;2022-10-30T01:01:00;12.90;1.00
7014;DHT22;3547;50.774;12.918;2022-10-30T01:03:28;12.90;1.00
7014;DHT22;3547;50.774;12.918;2022-10-30T01:06:02;12.90;1.00
7014;DHT22;3547;50.774;12.918;2022-10-30T01:08:29;12.90;1.00
7014;DHT22;3547;50.774;12.918;2022-10-30T01:10:57;12.90;1.00
7014;DHT22;3547;50.774;12.918;2022-10-30T01:13:25;12.80;1.00
7014;DHT22;3547;50.774;12.918;2022-10-30T01:16:19;12.80;1.00
7014;DHT22;3547;50.774;12.918;2022-10-30T01:27:52;12.90;1.00
7014;DHT22;3547;50.774;12.918;2022-10-30T01:35:39;12.80;1.00
7014;DHT22;3547;50.774;12.918;2022-10-30T01:40:44;12.80;1.00
7014;DHT22;3547;50.774;12.918;2022-10-30T01:43:10;12.80;1.00
7014;DHT22;3547;50.774;12.918;2022-10-30T01:54:38;12.70;1.00
7014;DHT22;3547;50.774;12.918;2022-10-30T02:00:10;12.70;1.00
7014;DHT22;3547;50.774;12.918;2022-10-30T02:03:10;12.70;1.00
7014;DHT22;3547;50.774;12.918;2022-10-30T02:05:48;12.80;1.00
7014;DHT22;3547;50.774;12.918;2022-10-30T02:08:14;12.80;1.00
7014;DHT22;3547;50.774;12.918;2022-10-30T02:10:42;12.50;1.00
7014;DHT22;3547;50.774;12.918;2022-10-30T02:13:09;12.50;1.00
7014;DHT22;3547;50.774;12.918;2022-10-30T02:15:36;12.50;1.00
7014;DHT22;3547;50.774;12.918;2022-10-30T02:18:03;12.40;1.00
7014;DHT22;3547;50.774;12.918;2022-10-30T02:20:29;12.40;1.00
7014;DHT22;3547;50.774;12.918;2022-10-30T02:22:55;12.50;1.00
7014;DHT22;3547;50.774;12.918;2022-10-30T02:25:22;12.80;1.00
7014;DHT22;3547;50.774;12.918;2022-10-30T02:27:48;12.90;1.00
7014;DHT22;3547;50.774;12.918;2022-10-30T02:30:14;13.30;1.00
7014;DHT22;3547;50.774;12.918;2022-10-30T02:32:40;13.70;1.00
7014;DHT22;3547;50.774;12.918;2022-10-30T02:35:08;13.80;1.00
7014;DHT22;3547;50.774;12.918;2022-10-30T02:37:34;14.40;1.00
7014;DHT22;3547;50.774;12.918;2022-10-30T02:40:02;14.20;1.00
7014;DHT22;3547;50.774;12.918;2022-10-30T02:42:28;13.70;1.00
7014;DHT22;3547;50.774;12.918;2022-10-30T02:44:54;13.30;1.00
7014;DHT22;3547;50.774;12.918;2022-10-30T02:47:21;13.00;1.00
7014;DHT22;3547;50.774;12.918;2022-10-30T02:49:47;12.90;1.00
7014;DHT22;3547;50.774;12.918;2022-10-30T02:52:13;12.90;1.00
7014;DHT22;3547;50.774;12.918;2022-10-30T02:54:39;12.90;1.00
7014;DHT22;3547;50.774;12.918;2022-10-30T02:57:05;13.00;1.00
7014;DHT22;3547;50.774;12.918;2022-10-30T03:02:55;13.00;1.00
7014;DHT22;3547;50.774;12.918;2022-10-30T03:05:21;13.00;1.00
7014;DHT22;3547;50.774;12.918;2022-10-30T03:07:48;13.10;1.00
7014;DHT22;3547;50.774;12.918;2022-10-30T03:10:14;13.00;1.00
7014;DHT22;3547;50.774;12.918;2022-10-30T03:12:41;13.10;1.00
7014;DHT22;3547;50.774;12.918;2022-10-30T03:15:09;13.10;1.00
7014;DHT22;3547;50.774;12.918;2022-10-30T03:17:35;13.10;1.00
7014;DHT22;3547;50.774;12.918;2022-10-30T03:20:04;13.10;1.00
7014;DHT22;3547;50.774;12.918;2022-10-30T03:22:30;13.10;1.00
7014;DHT22;3547;50.774;12.918;2022-10-30T03:24:57;13.10;1.00
7014;DHT22;3547;50.774;12.918;2022-10-30T03:27:23;13.10;1.00
7014;DHT22;3547;50.774;12.918;2022-10-30T03:29:49;13.10;1.00
7014;DHT22;3547;50.774;12.918;2022-10-30T03:32:15;13.10;1.00
7014;DHT22;3547;50.774;12.918;2022-10-30T03:34:41;13.20;1.00
7014;DHT22;3547;50.774;12.918;2022-10-30T03:37:07;13.20;1.00
7014;DHT22;3547;50.774;12.918;2022-10-30T03:39:34;13.20;1.00
7014;DHT22;3547;50.774;12.918;2022-10-30T03:42:00;13.10;1.00
7014;DHT22;3547;50.774;12.918;2022-10-30T03:44:26;13.20;1.00
7014;DHT22;3547;50.774;12.918;2022-10-30T03:46:53;13.20;1.00
7014;DHT22;3547;50.774;12.918;2022-10-30T03:49:19;13.20;1.00
7014;DHT22;3547;50.774;12.918;2022-10-30T03:51:45;13.30;1.00
7014;DHT22;3547;50.774;12.918;2022-10-30T03:54:11;13.30;1.00
7014;DHT22;3547;50.774;12.918;2022-10-30T03:56:38;13.30;1.00
7014;DHT22;3547;50.774;12.918;2022-10-30T03:59:04;13.40;1.00
7014;DHT22;3547;50.774;12.918;2022-10-30T04:01:30;13.40;1.00
7014;DHT22;3547;50.774;12.918;2022-10-30T04:03:56;13.40;1.00
7014;DHT22;3547;50.774;12.918;2022-10-30T04:06:22;13.40;1.00
7014;DHT22;3547;50.774;12.918;2022-10-30T04:08:48;13.50;1.00
7014;DHT22;3547;50.774;12.918;2022-10-30T04:11:14;13.50;1.00
7014;DHT22;3547;50.774;12.918;2022-10-30T04:13:41;13.50;1.00
7014;DHT22;3547;50.774;12.918;2022-10-30T04:16:07;13.50;1.00
7014;DHT22;3547;50.774;12.918;2022-10-30T04:18:33;13.50;1.00
7014;DHT22;3547;50.774;12.918;2022-10-30T04:20:59;13.40;1.00
7014;DHT22;3547;50.774;12.918;2022-10-30T04:23:25;13.10;1.00
7014;DHT22;3547;50.774;12.918;2022-10-30T04:25:51;12.90;1.00
7014;DHT22;3547;50.774;12.918;2022-10-30T04:28:18;12.80;1.00
7014;DHT22;3547;50.774;12.918;2022-10-30T04:30:46;12.80;1.00
7014;DHT22;3547;50.774;12.918;2022-10-30T04:33:13;12.60;1.00
7014;DHT22;3547;50.774;12.918;2022-10-30T04:35:43;12.60;1.00
7014;DHT22;3547;50.774;12.918;2022-10-30T04:38:13;12.60;1.00
7014;DHT22;3547;50.774;12.918;2022-10-30T04:40:41;12.50;1.00
7014;DHT22;3547;50.774;12.918;2022-10-30T04:43:08;12.60;1.00
7014;DHT22;3547;50.774;12.918;2022-10-30T04:45:35;12.60;1.00
7014;DHT22;3547;50.774;12.918;2022-10-30T04:48:05;12.70;1.00
7014;DHT22;3547;50.774;12.918;2022-10-30T04:50:32;12.70;1.00
7014;DHT22;3547;50.774;12.918;2022-10-30T04:53:04;12.70;1.00
7014;DHT22;3547;50.774;12.918;2022-10-30T04:55:31;12.70;1.00
7014;DHT22;3547;50.774;12.918;2022-10-30T04:57:58;12.80;1.00
7014;DHT22;3547;50.774;12.918;2022-10-30T05:00:25;12.80;1.00
7014;DHT22;3547;50.774;12.918;2022-10-30T05:02:52;12.90;1.00
7014;DHT22;3547;50.774;12.918;2022-10-30T05:05:18;13.00;1.00
7014;DHT22;3547;50.774;12.918;2022-10-30T05:07:45;13.00;1.00
7014;DHT22;3547;50.774;12.918;2022-10-30T05:10:14;13.00;1.00
7014;DHT22;3547;50.774;12.918;2022-10-30T05:12:42;13.10;1.00
7014;DHT22;3547;50.774;12.918;2022-10-30T05:15:09;13.10;1.00
7014;DHT22;3547;50.774;12.918;2022-10-30T05:17:36;13.20;1.00
7014;DHT22;3547;50.774;12.918;2022-10-30T05:20:06;13.20;1.00
7014;DHT22;3547;50.774;12.918;2022-10-30T05:22:33;13.20;1.00
7014;DHT22;3547;50.774;12.918;2022-10-30T05:24:59;13.20;1.00
7014;DHT22;3547;50.774;12.918;2022-10-30T05:27:26;13.20;1.00
7014;DHT22;3547;50.774;12.918;2022-10-30T05:29:52;13.20;1.00
7014;DHT22;3547;50.774;12.918;2022-10-30T05:32:18;13.20;1.00
7014;DHT22;3547;50.774;12.918;2022-10-30T05:34:44;13.20;1.00
7014;DHT22;3547;50.774;12.918;2022-10-30T05:37:13;13.20;1.00
7014;DHT22;3547;50.774;12.918;2022-10-30T05:39:39;13.30;1.00
7014;DHT22;3547;50.774;12.918;2022-10-30T05:42:05;13.30;1.00
7014;DHT22;3547;50.774;12.918;2022-10-30T05:44:32;13.30;1.00
7014;DHT22;3547;50.774;12.918;2022-10-30T05:46:58;13.30;1.00
7014;DHT22;3547;50.774;12.918;2022-10-30T05:49:24;13.40;1.00
7014;DHT22;3547;50.774;12.918;2022-10-30T05:51:50;13.40;1.00
7014;DHT22;3547;50.774;12.918;2022-10-30T05:54:16;13.40;1.00
7014;DHT22;3547;50.774;12.918;2022-10-30T05:56:48;13.40;1.00
7014;DHT22;3547;50.774;12.918;2022-10-30T05:59:14;13.40;1.00
7014;DHT22;3547;50.774;12.918;2022-10-30T06:01:41;13.40;1.00
7014;DHT22;3547;50.774;12.918;2022-10-30T06:04:10;13.40;1.00
7014;DHT22;3547;50.774;12.918;2022-10-30T06:06:39;13.50;1.00
7014;DHT22;3547;50.774;12.918;2022-10-30T06:09:05;13.50;1.00
7014;DHT22;3547;50.774;12.918;2022-10-30T06:11:31;13.30;1.00
7014;DHT22;3547;50.774;12.918;2022-10-30T06:13:57;13.20;1.00
7014;DHT22;3547;50.774;12.918;2022-10-30T06:16:23;13.20;1.00
7014;DHT22;3547;50.774;12.918;2022-10-30T06:18:49;13.20;1.00
7014;DHT22;3547;50.774;12.918;2022-10-30T06:21:15;13.10;1.00
7014;DHT22;3547;50.774;12.918;2022-10-30T06:23:42;13.20;1.00
7014;DHT22;3547;50.774;12.918;2022-10-30T06:26:08;13.10;1.00
7014;DHT22;3547;50.774;12.918;2022-10-30T06:28:37;13.20;1.00
7014;DHT22;3547;50.774;12.918;2022-10-30T06:31:03;13.10;1.00
7014;DHT22;3547;50.774;12.918;2022-10-30T06:33:29;13.10;1.00
7014;DHT22;3547;50.774;12.918;2022-10-30T06:35:55;12.90;1.00
7014;DHT22;3547;50.774;12.918;2022-10-30T06:38:22;12.80;1.00
7014;DHT22;3547;50.774;12.918;2022-10-30T06:40:48;12.90;1.00
7014;DHT22;3547;50.774;12.918;2022-10-30T06:43:14;13.00;1.00
7014;DHT22;3547;50.774;12.918;2022-10-30T06:45:40;12.90;1.00
7014;DHT22;3547;50.774;12.918;2022-10-30T06:48:08;12.80;1.00
7014;DHT22;3547;50.774;12.918;2022-10-30T06:50:34;12.80;1.00
7014;DHT22;3547;50.774;12.918;2022-10-30T06:53:00;12.80;1.00
7014;DHT22;3547;50.774;12.918;2022-10-30T06:55:26;12.90;1.00
7014;DHT22;3547;50.774;12.918;2022-10-30T06:57:55;12.90;1.00
7014;DHT22;3547;50.774;12.918;2022-10-30T07:00:21;13.00;1.00
7014;DHT22;3547;50.774;12.918;2022-10-30T07:02:56;13.00;1.00
7014;DHT22;3547;50.774;12.918;2022-10-30T07:05:22;12.90;1.00
7014;DHT22;3547;50.774;12.918;2022-10-30T07:07:48;12.90;1.00
7014;DHT22;3547;50.774;12.918;2022-10-30T07:10:14;12.80;1.00
7014;DHT22;3547;50.774;12.918;2022-10-30T07:12:41;12.90;1.00
7014;DHT22;3547;50.774;12.918;2022-10-30T07:15:07;12.90;1.00
7014;DHT22;3547;50.774;12.918;2022-10-30T07:17:33;13.10;1.00
7014;DHT22;3547;50.774;12.918;2022-10-30T07:19:59;13.20;1.00
7014;DHT22;3547;50.774;12.918;2022-10-30T07:22:25;13.20;1.00
7014;DHT22;3547;50.774;12.918;2022-10-30T07:24:55;13.20;1.00
7014;DHT22;3547;50.774;12.918;2022-10-30T07:27:24;12.90;1.00
7014;DHT22;3547;50.774;12.918;2022-10-30T07:29:50;12.90;1.00
7014;DHT22;3547;50.774;12.918;2022-10-30T07:32:16;12.80;1.00
7014;DHT22;3547;50.774;12.918;2022-10-30T07:34:42;12.90;1.00
7014;DHT22;3547;50.774;12.918;2022-10-30T07:37:08;13.10;1.00
7014;DHT22;3547;50.774;12.918;2022-10-30T07:39:34;13.20;1.00
7014;DHT22;3547;50.774;12.918;2022-10-30T07:42:01;13.30;1.00
7014;DHT22;3547;50.774;12.918;2022-10-30T07:44:27;13.40;1.00
7014;DHT22;3547;50.774;12.918;2022-10-30T07:46:53;13.40;1.00
7014;DHT22;3547;50.774;12.918;2022-10-30T07:49:19;13.40;1.00
7014;DHT22;3547;50.774;12.918;2022-10-30T07:51:45;13.40;1.00
7014;DHT22;3547;50.774;12.918;2022-10-30T07:54:12;13.40;1.00
7014;DHT22;3547;50.774;12.918;2022-10-30T07:56:38;13.50;1.00
7014;DHT22;3547;50.774;12.918;2022-10-30T07:59:04;13.60;1.00
7014;DHT22;3547;50.774;12.918;2022-10-30T08:01:30;13.60;1.00
7014;DHT22;3547;50.774;12.918;2022-10-30T08:03:57;13.70;1.00
7014;DHT22;3547;50.774;12.918;2022-10-30T08:06:23;13.70;1.00
7014;DHT22;3547;50.774;12.918;2022-10-30T08:08:49;13.70;1.00
7014;DHT22;3547;50.774;12.918;2022-10-30T08:11:15;13.70;1.00
7014;DHT22;3547;50.774;12.918;2022-10-30T08:13:41;13.80;1.00
7014;DHT22;3547;50.774;12.918;2022-10-30T08:16:08;13.80;1.00
7014;DHT22;3547;50.774;12.918;2022-10-30T08:18:34;13.90;1.00
7014;DHT22;3547;50.774;12.918;2022-10-30T08:21:00;14.00;1.00
7014;DHT22;3547;50.774;12.918;2022-10-30T08:23:26;14.20;1.00
7014;DHT22;3547;50.774;12.918;2022-10-30T08:25:56;14.20;1.00
7014;DHT22;3547;50.774;12.918;2022-10-30T08:28:22;14.30;1.00
7014;DHT22;3547;50.774;12.918;2022-10-30T08:30:48;14.40;1.00
7014;DHT22;3547;50.774;12.918;2022-10-30T08:33:14;14.40;1.00
7014;DHT22;3547;50.774;12.918;2022-10-30T08:35:52;14.50;1.00
7014;DHT22;3547;50.774;12.918;2022-10-30T08:38:19;14.60;1.00
7014;DHT22;3547;50.774;12.918;2022-10-30T08:40:45;14.70;1.00
7014;DHT22;3547;50.774;12.918;2022-10-30T08:43:11;14.80;1.00
7014;DHT22;3547;50.774;12.918;2022-10-30T08:45:37;14.80;1.00
7014;DHT22;3547;50.774;12.918;2022-10-30T08:48:04;14.80;1.00
7014;DHT22;3547;50.774;12.918;2022-10-30T08:50:32;14.90;1.00
7014;DHT22;3547;50.774;12.918;2022-10-30T08:53:04;15.00;1.00
7014;DHT22;3547;50.774;12.918;2022-10-30T08:55:32;15.00;1.00
7014;DHT22;3547;50.774;12.918;2022-10-30T08:57:59;15.10;1.00
7014;DHT22;3547;50.774;12.918;2022-10-30T09:00:26;15.30;1.00
7014;DHT22;3547;50.774;12.918;2022-10-30T09:02:56;15.40;1.00
7014;DHT22;3547;50.774;12.918;2022-10-30T09:05:22;15.50;1.00
7014;DHT22;3547;50.774;12.918;2022-10-30T09:07:48;15.70;1.00
7014;DHT22;3547;50.774;12.918;2022-10-30T09:10:15;15.80;1.00
7014;DHT22;3547;50.774;12.918;2022-10-30T09:12:41;15.90;1.00
7014;DHT22;3547;50.774;12.918;2022-10-30T09:15:07;15.90;1.00
7014;DHT22;3547;50.774;12.918;2022-10-30T09:17:34;16.00;1.00
7014;DHT22;3547;50.774;12.918;2022-10-30T09:20:00;16.10;1.00
7014;DHT22;3547;50.774;12.918;2022-10-30T09:22:26;16.10;1.00
7014;DHT22;3547;50.774;12.918;2022-10-30T09:24:52;16.20;1.00
7014;DHT22;3547;50.774;12.918;2022-10-30T09:27:19;16.20;1.00
7014;DHT22;3547;50.774;12.918;2022-10-30T09:29:45;16.30;1.00
7014;DHT22;3547;50.774;12.918;2022-10-30T09:32:11;16.40;1.00
7014;DHT22;3547;50.774;12.918;2022-10-30T09:34:37;16.40;1.00
7014;DHT22;3547;50.774;12.918;2022-10-30T09:37:04;16.50;1.00
7014;DHT22;3547;50.774;12.918;2022-10-30T09:39:30;16.60;1.00
7014;DHT22;3547;50.774;12.918;2022-10-30T09:45:28;16.70;1.00
7014;DHT22;3547;50.774;12.918;2022-10-30T09:50:35;16.80;1.00
7014;DHT22;3547;50.774;12.918;2022-10-30T09:56:22;16.90;1.00
7014;DHT22;3547;50.774;12.918;2022-10-30T10:04:45;17.20;1.00
7014;DHT22;3547;50.774;12.918;2022-10-30T10:07:34;17.30;1.00
7014;DHT22;3547;50.774;12.918;2022-10-30T10:10:24;17.40;1.00
7014;DHT22;3547;50.774;12.918;2022-10-30T10:12:52;17.50;1.00
7014;DHT22;3547;50.774;12.918;2022-10-30T10:17:58;17.60;1.00
7014;DHT22;3547;50.774;12.918;2022-10-30T10:20:32;17.70;1.00
7014;DHT22;3547;50.774;12.918;2022-10-30T10:23:04;17.70;1.00
7014;DHT22;3547;50.774;12.918;2022-10-30T10:25:37;17.80;1.00
7014;DHT22;3547;50.774;12.918;2022-10-30T10:31:36;18.00;1.00
7014;DHT22;3547;50.774;12.918;2022-10-30T10:37:25;18.20;1.00
7014;DHT22;3547;50.774;12.918;2022-10-30T10:51:19;18.90;1.00
7014;DHT22;3547;50.774;12.918;2022-10-30T10:54:15;19.00;1.00
7014;DHT22;3547;50.774;12.918;2022-10-30T10:56:46;19.00;1.00
7014;DHT22;3547;50.774;12.918;2022-10-30T11:02:35;19.40;1.00
7014;DHT22;3547;50.774;12.918;2022-10-30T11:07:45;19.50;1.00
7014;DHT22;3547;50.774;12.918;2022-10-30T11:10:15;19.50;1.00
7014;DHT22;3547;50.774;12.918;2022-10-30T11:12:42;19.60;1.00
7014;DHT22;3547;50.774;12.918;2022-10-30T11:18:04;19.80;1.00
7014;DHT22;3547;50.774;12.918;2022-10-30T11:25:57;20.50;1.00
7014;DHT22;3547;50.774;12.918;2022-10-30T11:31:20;20.70;1.00
7014;DHT22;3547;50.774;12.918;2022-10-30T11:33:48;20.80;1.00
7014;DHT22;3547;50.774;12.918;2022-10-30T11:36:17;21.00;1.00
7014;DHT22;3547;50.774;12.918;2022-10-30T11:38:44;20.90;1.00
7014;DHT22;3547;50.774;12.918;2022-10-30T11:41:10;21.20;1.00
7014;DHT22;3547;50.774;12.918;2022-10-30T11:43:39;21.10;1.00
7014;DHT22;3547;50.774;12.918;2022-10-30T11:46:08;21.10;1.00
7014;DHT22;3547;50.774;12.918;2022-10-30T11:48:42;21.40;1.00
7014;DHT22;3547;50.774;12.918;2022-10-30T11:51:10;21.40;1.00
7014;DHT22;3547;50.774;12.918;2022-10-30T11:53:45;21.50;1.00
7014;DHT22;3547;50.774;12.918;2022-10-30T11:56:19;21.50;1.00
7014;DHT22;3547;50.774;12.918;2022-10-30T11:58:48;21.50;1.00
7014;DHT22;3547;50.774;12.918;2022-10-30T12:01:24;21.70;1.00
7014;DHT22;3547;50.774;12.918;2022-10-30T12:03:51;21.70;1.00
7014;DHT22;3547;50.774;12.918;2022-10-30T12:06:26;21.60;1.00
7014;DHT22;3547;50.774;12.918;2022-10-30T12:09:00;21.50;1.00
7014;DHT22;3547;50.774;12.918;2022-10-30T12:11:29;21.50;1.00
7014;DHT22;3547;50.774;12.918;2022-10-30T12:13:56;21.40;1.00
7014;DHT22;3547;50.774;12.918;2022-10-30T12:16:23;21.50;1.00
7014;DHT22;3547;50.774;12.918;2022-10-30T12:19:00;21.50;1.00
7014;DHT22;3547;50.774;12.918;2022-10-30T12:21:33;21.50;1.00
7014;DHT22;3547;50.774;12.918;2022-10-30T12:24:04;21.40;1.00
7014;DHT22;3547;50.774;12.918;2022-10-30T12:26:36;21.70;1.00
7014;DHT22;3547;50.774;12.918;2022-10-30T12:29:07;21.80;1.00
7014;DHT22;3547;50.774;12.918;2022-10-30T12:31:59;21.80;1.00
7014;DHT22;3547;50.774;12.918;2022-10-30T12:37:10;21.80;1.00
7014;DHT22;3547;50.774;12.918;2022-10-30T12:42:16;21.80;1.00
7014;DHT22;3547;50.774;12.918;2022-10-30T12:44:43;21.80;1.00
7014;DHT22;3547;50.774;12.918;2022-10-30T12:47:24;21.80;1.00
7014;DHT22;3547;50.774;12.918;2022-10-30T12:50:23;22.00;1.00
7014;DHT22;3547;50.774;12.918;2022-10-30T12:56:08;21.80;1.00
7014;DHT22;3547;50.774;12.918;2022-10-30T13:04:38;21.80;1.00
7014;DHT22;3547;50.774;12.918;2022-10-30T13:07:21;21.80;1.00
7014;DHT22;3547;50.774;12.918;2022-10-30T13:12:48;21.80;1.00
7014;DHT22;3547;50.774;12.918;2022-10-30T13:15:25;21.70;1.00
7014;DHT22;3547;50.774;12.918;2022-10-30T13:17:56;21.70;1.00
7014;DHT22;3547;50.774;12.918;2022-10-30T13:20:25;21.90;1.00
7014;DHT22;3547;50.774;12.918;2022-10-30T13:22:59;22.00;1.00
7014;DHT22;3547;50.774;12.918;2022-10-30T13:26:00;22.00;1.00
7014;DHT22;3547;50.774;12.918;2022-10-30T13:28:34;21.90;1.00
7014;DHT22;3547;50.774;12.918;2022-10-30T13:31:14;22.00;1.00
7014;DHT22;3547;50.774;12.918;2022-10-30T13:34:02;22.00;1.00
7014;DHT22;3547;50.774;12.918;2022-10-30T13:36:37;21.90;1.00
7014;DHT22;3547;50.774;12.918;2022-10-30T13:47:34;22.20;1.00
7014;DHT22;3547;50.774;12.918;2022-10-30T13:52:32;22.20;1.00
7014;DHT22;3547;50.774;12.918;2022-10-30T13:55:20;22.10;1.00
7014;DHT22;3547;50.774;12.918;2022-10-30T14:00:31;22.10;1.00
7014;DHT22;3547;50.774;12.918;2022-10-30T14:06:55;21.90;1.00
7014;DHT22;3547;50.774;12.918;2022-10-30T14:11:28;21.90;1.00
7014;DHT22;3547;50.774;12.918;2022-10-30T14:13:56;21.90;1.00
7014;DHT22;3547;50.774;12.918;2022-10-30T14:16:36;21.90;1.00
7014;DHT22;3547;50.774;12.918;2022-10-30T14:19:05;21.80;1.00
7014;DHT22;3547;50.774;12.918;2022-10-30T14:24:31;21.70;1.00
7014;DHT22;3547;50.774;12.918;2022-10-30T14:40:29;21.30;1.00
7014;DHT22;3547;50.774;12.918;2022-10-30T14:43:02;21.30;1.00
7014;DHT22;3547;50.774;12.918;2022-10-30T14:45:47;21.20;1.00
7014;DHT22;3547;50.774;12.918;2022-10-30T14:48:23;21.10;1.00
7014;DHT22;3547;50.774;12.918;2022-10-30T14:58:39;20.80;1.00
7014;DHT22;3547;50.774;12.918;2022-10-30T15:06:39;20.50;1.00
7014;DHT22;3547;50.774;12.918;2022-10-30T15:14:35;20.30;1.00
7014;DHT22;3547;50.774;12.918;2022-10-30T15:17:03;20.00;1.00
7014;DHT22;3547;50.774;12.918;2022-10-30T15:19:30;19.90;1.00
7014;DHT22;3547;50.774;12.918;2022-10-30T15:21:59;19.80;1.00
7014;DHT22;3547;50.774;12.918;2022-10-30T15:24:28;19.70;1.00
7014;DHT22;3547;50.774;12.918;2022-10-30T15:26:57;19.50;1.00
7014;DHT22;3547;50.774;12.918;2022-10-30T15:29:28;19.40;1.00
7014;DHT22;3547;50.774;12.918;2022-10-30T15:32:27;19.20;1.00
7014;DHT22;3547;50.774;12.918;2022-10-30T15:35:01;19.10;1.00
7014;DHT22;3547;50.774;12.918;2022-10-30T15:37:29;19.00;1.00
7014;DHT22;3547;50.774;12.918;2022-10-30T15:40:16;18.80;1.00
7014;DHT22;3547;50.774;12.918;2022-10-30T15:42:45;18.70;1.00
7014;DHT22;3547;50.774;12.918;2022-10-30T15:48:03;18.40;1.00
7014;DHT22;3547;50.774;12.918;2022-10-30T15:50:32;18.30;1.00
7014;DHT22;3547;50.774;12.918;2022-10-30T15:52:59;18.20;1.00
7014;DHT22;3547;50.774;12.918;2022-10-30T15:55:29;18.00;1.00
7014;DHT22;3547;50.774;12.918;2022-10-30T15:58:01;17.90;1.00
7014;DHT22;3547;50.774;12.918;2022-10-30T16:00:37;17.80;1.00
7014;DHT22;3547;50.774;12.918;2022-10-30T16:03:05;17.60;1.00
7014;DHT22;3547;50.774;12.918;2022-10-30T16:05:33;17.50;1.00
7014;DHT22;3547;50.774;12.918;2022-10-30T16:08:21;17.40;1.00
7014;DHT22;3547;50.774;12.918;2022-10-30T16:10:51;17.30;1.00
7014;DHT22;3547;50.774;12.918;2022-10-30T16:13:30;17.20;1.00
7014;DHT22;3547;50.774;12.918;2022-10-30T16:16:02;17.10;1.00
7014;DHT22;3547;50.774;12.918;2022-10-30T16:18:33;17.00;1.00
7014;DHT22;3547;50.774;12.918;2022-10-30T16:21:04;16.90;1.00
7014;DHT22;3547;50.774;12.918;2022-10-30T16:23:40;16.80;1.00
7014;DHT22;3547;50.774;12.918;2022-10-30T16:26:26;16.70;1.00
7014;DHT22;3547;50.774;12.918;2022-10-30T16:28:55;16.60;1.00
7014;DHT22;3547;50.774;12.918;2022-10-30T16:31:23;16.60;1.00
7014;DHT22;3547;50.774;12.918;2022-10-30T16:33:57;16.50;99.90
7014;DHT22;3547;50.774;12.918;2022-10-30T16:36:24;16.40;99.90
7014;DHT22;3547;50.774;12.918;2022-10-30T16:38:51;16.40;99.90
7014;DHT22;3547;50.774;12.918;2022-10-30T16:41:18;16.30;99.90
7014;DHT22;3547;50.774;12.918;2022-10-30T16:49:17;16.10;99.90
7014;DHT22;3547;50.774;12.918;2022-10-30T16:51:44;16.00;99.90
7014;DHT22;3547;50.774;12.918;2022-10-30T16:54:26;16.00;99.90
7014;DHT22;3547;50.774;12.918;2022-10-30T16:56:54;15.90;99.90
7014;DHT22;3547;50.774;12.918;2022-10-30T16:59:29;15.90;99.90
7014;DHT22;3547;50.774;12.918;2022-10-30T17:01:59;15.80;99.90
7014;DHT22;3547;50.774;12.918;2022-10-30T17:04:34;15.80;99.90
7014;DHT22;3547;50.774;12.918;2022-10-30T17:07:20;15.70;99.90
7014;DHT22;3547;50.774;12.918;2022-10-30T17:09:48;15.60;99.90
7014;DHT22;3547;50.774;12.918;2022-10-30T17:12:19;15.60;99.90
7014;DHT22;3547;50.774;12.918;2022-10-30T17:15:13;15.50;99.90
7014;DHT22;3547;50.774;12.918;2022-10-30T17:17:42;15.50;99.90
7014;DHT22;3547;50.774;12.918;2022-10-30T17:20:24;15.40;99.90
7014;DHT22;3547;50.774;12.918;2022-10-30T17:23:18;15.40;99.90
7014;DHT22;3547;50.774;12.918;2022-10-30T17:25:48;15.30;99.90
7014;DHT22;3547;50.774;12.918;2022-10-30T17:28:33;15.20;99.90
7014;DHT22;3547;50.774;12.918;2022-10-30T17:31:18;15.20;99.90
7014;DHT22;3547;50.774;12.918;2022-10-30T17:33:46;15.10;99.90
7014;DHT22;3547;50.774;12.918;2022-10-30T17:36:13;15.10;99.90
7014;DHT22;3547;50.774;12.918;2022-10-30T17:38:39;15.10;99.90
7014;DHT22;3547;50.774;12.918;2022-10-30T17:41:12;15.00;99.90
7014;DHT22;3547;50.774;12.918;2022-10-30T17:43:51;15.00;99.90
7014;DHT22;3547;50.774;12.918;2022-10-30T17:46:18;15.00;99.90
7014;DHT22;3547;50.774;12.918;2022-10-30T17:48:44;15.00;99.90
7014;DHT22;3547;50.774;12.918;2022-10-30T17:51:36;14.90;99.90
7014;DHT22;3547;50.774;12.918;2022-10-30T17:54:09;14.90;99.90
7014;DHT22;3547;50.774;12.918;2022-10-30T17:56:38;14.90;99.90
7014;DHT22;3547;50.774;12.918;2022-10-30T17:59:04;14.90;99.90
7014;DHT22;3547;50.774;12.918;2022-10-30T18:01:30;14.90;99.90
7014;DHT22;3547;50.774;12.918;2022-10-30T18:03:57;14.90;99.90
7014;DHT22;3547;50.774;12.918;2022-10-30T18:06:38;14.90;99.90
7014;DHT22;3547;50.774;12.918;2022-10-30T18:09:04;14.80;99.90
7014;DHT22;3547;50.774;12.918;2022-10-30T18:11:31;14.80;99.90
7014;DHT22;3547;50.774;12.918;2022-10-30T18:14:08;14.80;99.90
7014;DHT22;3547;50.774;12.918;2022-10-30T18:17:09;14.80;99.90
7014;DHT22;3547;50.774;12.918;2022-10-30T18:19:36;14.80;99.90
7014;DHT22;3547;50.774;12.918;2022-10-30T18:22:02;14.70;99.90
7014;DHT22;3547;50.774;12.918;2022-10-30T18:27:52;14.70;99.90
7014;DHT22;3547;50.774;12.918;2022-10-30T18:30:19;14.60;99.90
7014;DHT22;3547;50.774;12.918;2022-10-30T18:32:45;14.60;99.90
7014;DHT22;3547;50.774;12.918;2022-10-30T18:43:27;14.40;99.90
7014;DHT22;3547;50.774;12.918;2022-10-30T18:46:00;14.40;99.90
7014;DHT22;3547;50.774;12.918;2022-10-30T18:48:35;14.40;99.90
7014;DHT22;3547;50.774;12.918;2022-10-30T18:53:42;14.30;99.90
7014;DHT22;3547;50.774;12.918;2022-10-30T18:56:21;14.30;99.90
7014;DHT22;3547;50.774;12.918;2022-10-30T18:58:48;14.30;99.90
7014;DHT22;3547;50.774;12.918;2022-10-30T19:07:41;14.20;99.90
7014;DHT22;3547;50.774;12.918;2022-10-30T19:10:08;14.20;99.90
7014;DHT22;3547;50.774;12.918;2022-10-30T19:12:34;14.20;99.90
7014;DHT22;3547;50.774;12.918;2022-10-30T19:15:16;14.20;99.90
7014;DHT22;3547;50.774;12.918;2022-10-30T19:17:45;14.10;99.90
7014;DHT22;3547;50.774;12.918;2022-10-30T19:20:14;14.20;99.90
7014;DHT22;3547;50.774;12.918;2022-10-30T19:22:44;14.10;99.90
7014;DHT22;3547;50.774;12.918;2022-10-30T19:32:04;14.20;99.90
7014;DHT22;3547;50.774;12.918;2022-10-30T19:34:30;14.20;99.90
7014;DHT22;3547;50.774;12.918;2022-10-30T19:36:56;14.20;99.90
7014;DHT22;3547;50.774;12.918;2022-10-30T19:39:22;14.20;99.90
7014;DHT22;3547;50.774;12.918;2022-10-30T19:41:49;14.10;99.90
7014;DHT22;3547;50.774;12.918;2022-10-30T19:44:15;14.20;99.90
7014;DHT22;3547;50.774;12.918;2022-10-30T19:46:41;14.10;99.90
7014;DHT22;3547;50.774;12.918;2022-10-30T19:49:18;14.10;99.90